Billings, MT (59101)

11:47 AM MST on November 27, 2014 (GMT -0700)
Downtown Billings | Change Station
CLOSE
Current Station
Personal Weather Station
Location: Billings, MT
Elevation: 3127 ft
Nearby Weather Stations

Elev 3127 ft 45.78 °N, 108.50 °W | Updated 43 minutes ago

Partly Cloudy
Partly Cloudy
44.0 °F
Feels Like 38 °F
N
11.2
Wind Variable Wind from WSW
Gusts 17.0 mph

Today
High -- | Low -- °F
--% Chance of Precip.
Yesterday
High -- | Low -- °F
Precip. -- in
7:29 AM 4:33 PM
Waxing Crescent, 32% visible
Pressure 29.97 in
Visibility 10.0 miles
Clouds Few 12000 ft
Scattered Clouds 24000 ft
Windchill 38 °F
Dew Point 34 °F
Humidity 68%
Rainfall -999.00 in
Snow Depth Not available.
UV 1 out of 12
Pollen .10 out of 12
Air Quality Not available.
Flu Activity Not available.
METAR KBIL 271753Z 24019G24KT 10SM FEW120 SCT240 06/M01 A2990 RMK AO2 PK WND 24026/1708 SLP147 4/004 ACSL NW-S T00561011 10056 21028 56007 $

More Conditions Fewer Conditions

Pressure 29.97 in
Visibility 10.0 miles
Clouds Few 12000 ft
Scattered Clouds 24000 ft
Windchill 38 °F
Dew Point 34 °F
Humidity 68%
Rainfall -999.00 in
Snow Depth Not available.
UV 1 out of 12
Pollen .10 out of 12
Air Quality Not available.
Flu Activity Not available.
METAR KBIL 271753Z 24019G24KT 10SM FEW120 SCT240 06/M01 A2990 RMK AO2 PK WND 24026/1708 SLP147 4/004 ACSL NW-S T00561011 10056 21028 56007 $

More Conditions Fewer Conditions

10-Day Weather Forecast

Almanac

Astronomy

Nov. 27, 2014 Rise Set
Actual Time
Civil Twilight
Nautical Twilight
Astronomical Twilight
Moon
Length of Visible Light
Length of Day
Tomorrow will be .
, % of the Moon is Illuminated

Today's Extremes

State Highs State Lows

Community

WunderPhotos

Upload Photos

1,774,086 photos uploaded!

WunderBlogs® & News

Nearby

Air Quality

  Air Quality AQ Index Pollutant
Not available.

Snow Depth

Station Depth Elevation

Earthquake Activity

City Distance Mag. Time & Date
Minimum magnitude displayed is 2.5.

Coastal Water Temperatures

Place Temperature

Nearby Weather Stations